Time;durP1;ratioP1;P1;durP2;ratioP2;P2;SDS_P1;SDS_P2;PMS_P1;PMS_P2;Temp;Humidity;BMP_temperature;BMP_pressure;BME280_temperature;BME280_humidity;BME280_pressure;Samples;Min_cycle;Max_cycle;Signal;HPM_P1;HPM_P2
2022/05/23 00:00:30;;;;;;;9.40;3.80;;;;;;;4.59;86.51;99817.15;104965;1273;71764;-62
2022/05/23 00:03:20;;;;;;;8.70;3.80;;;;;;;4.58;86.68;99820.73;104803;1273;59804;-64
2022/05/23 00:06:08;;;;;;;8.50;3.70;;;;;;;4.58;86.82;99819.00;104633;1273;60860;-61
2022/05/23 00:08:57;;;;;;;10.20;4.50;;;;;;;4.58;87.04;99817.74;105048;1273;72442;-63
2022/05/23 00:11:47;;;;;;;9.80;3.70;;;;;;;4.58;87.23;99813.17;104870;1273;66818;-62
2022/05/23 00:14:35;;;;;;;8.70;3.80;;;;;;;4.59;87.57;99820.86;104797;1274;74401;-60
2022/05/23 00:17:22;;;;;;;8.60;3.50;;;;;;;4.59;87.63;99818.02;104998;1273;59633;-61
2022/05/23 00:20:14;;;;;;;9.10;3.80;;;;;;;4.60;87.72;99819.23;104818;1274;62107;-60
2022/05/23 00:23:01;;;;;;;8.90;3.60;;;;;;;4.58;88.02;99817.41;104767;1274;74706;-60
2022/05/23 00:25:50;;;;;;;9.10;3.70;;;;;;;4.55;88.35;99818.10;104851;1273;69496;-62
2022/05/23 00:28:39;;;;;;;10.50;3.80;;;;;;;4.51;88.58;99817.76;104800;1273;73351;-59
2022/05/23 00:31:26;;;;;;;11.20;3.60;;;;;;;4.48;89.10;99821.81;104806;1274;59742;-60
2022/05/23 00:37:22;;;;;;;8.70;3.50;;;;;;;4.45;89.82;99819.89;105111;1273;74681;-61
2022/05/23 00:40:38;;;;;;;9.40;3.60;;;;;;;4.45;90.36;99818.13;104791;1274;67525;-62
2022/05/23 00:43:27;;;;;;;8.50;3.60;;;;;;;4.45;90.46;99820.27;104962;1273;73250;-63
2022/05/23 00:46:14;;;;;;;9.90;3.90;;;;;;;4.45;90.69;99822.37;104865;1273;59656;-61
2022/05/23 00:49:05;;;;;;;8.40;3.40;;;;;;;4.45;90.98;99820.59;104768;1273;62059;-62
2022/05/23 00:51:56;;;;;;;8.00;3.60;;;;;;;4.43;91.07;99820.51;104624;1274;74826;-64
2022/05/23 00:54:50;;;;;;;10.60;3.60;;;;;;;4.40;91.30;99817.20;104604;1273;68420;-66
2022/05/23 00:57:45;;;;;;;8.90;3.80;;;;;;;4.35;91.42;99814.27;104700;1273;73412;-60
2022/05/23 01:00:35;;;;;;;9.50;4.30;;;;;;;4.33;91.71;99811.10;104878;1274;59701;-60
2022/05/23 01:03:23;;;;;;;9.50;4.10;;;;;;;4.31;92.05;99810.68;104745;1273;62373;-61
2022/05/23 01:06:12;;;;;;;10.20;4.00;;;;;;;4.30;92.26;99809.52;104885;1273;73869;-61
2022/05/23 01:09:04;;;;;;;9.30;3.90;;;;;;;4.28;93.02;99806.59;104779;1273;69395;-61
2022/05/23 01:11:56;;;;;;;9.30;3.90;;;;;;;4.28;94.62;99806.59;104615;1273;73488;-60
2022/05/23 01:15:00;;;;;;;9.90;3.90;;;;;;;4.30;94.42;99808.80;104532;1274;59672;-62
2022/05/23 01:17:49;;;;;;;10.60;4.20;;;;;;;4.31;94.91;99815.39;104597;1274;59725;-61
2022/05/23 01:20:37;;;;;;;9.90;3.90;;;;;;;4.34;95.29;99817.20;104744;1273;72194;-62
2022/05/23 01:23:53;;;;;;;9.30;3.70;;;;;;;4.33;95.29;99820.55;104756;1273;69641;-61
2022/05/23 01:26:48;;;;;;;8.90;4.00;;;;;;;4.32;95.57;99822.20;104839;1274;74406;-59
2022/05/23 01:29:45;;;;;;;8.70;4.00;;;;;;;4.30;95.58;99819.84;104996;1273;61271;-62
2022/05/23 01:32:34;;;;;;;10.60;4.50;;;;;;;4.31;95.88;99820.66;104816;1273;61843;-63
2022/05/23 01:35:23;;;;;;;10.80;4.70;;;;;;;4.32;96.45;99823.62;104916;1274;73689;-59
2022/05/23 01:38:10;;;;;;;10.40;4.40;;;;;;;4.33;96.82;99819.33;104741;1274;66211;-61
2022/05/23 01:41:18;;;;;;;9.40;4.30;;;;;;;4.35;96.97;99821.52;104969;1273;73505;-60
2022/05/23 01:44:13;;;;;;;10.60;4.40;;;;;;;4.36;97.22;99823.20;104704;1273;61254;-64
2022/05/23 01:47:13;;;;;;;10.80;5.00;;;;;;;4.36;97.34;99817.95;104941;1274;60301;-62
2022/05/23 01:50:27;;;;;;;12.80;4.80;;;;;;;4.35;97.44;99818.69;104847;1273;74059;-60
2022/05/23 01:53:23;;;;;;;10.80;4.50;;;;;;;4.36;97.67;99823.56;104783;1273;69776;-61
2022/05/23 01:56:20;;;;;;;10.20;4.60;;;;;;;4.36;97.99;99824.08;104855;1274;74173;-61
2022/05/23 02:02:19;;;;;;;12.60;5.20;;;;;;;4.37;98.31;99822.96;104918;1273;59745;-60
2022/05/23 02:05:08;;;;;;;10.70;5.40;;;;;;;4.40;98.54;99823.88;103250;1274;1003544;-61
2022/05/23 02:07:56;;;;;;;13.90;6.20;;;;;;;4.40;98.57;99821.76;104553;1275;68551;-60
2022/05/23 02:10:45;;;;;;;13.80;5.20;;;;;;;4.39;98.67;99820.91;104902;1273;73676;-60
2022/05/23 02:13:44;;;;;;;13.60;5.50;;;;;;;4.38;98.74;99819.77;104770;1274;59700;-60
2022/05/23 02:16:42;;;;;;;13.20;6.30;;;;;;;4.37;99.33;99819.10;104617;1273;62103;-61
2022/05/23 02:19:33;;;;;;;13.50;6.00;;;;;;;4.37;99.49;99820.36;104794;1273;74746;-60
2022/05/23 02:22:33;;;;;;;13.70;5.90;;;;;;;4.34;99.65;99816.10;104703;1274;68328;-61
2022/05/23 02:25:37;;;;;;;11.30;5.60;;;;;;;4.32;99.85;99816.21;104815;1273;73228;-60
2022/05/23 02:28:58;;;;;;;12.80;6.40;;;;;;;4.30;99.97;99819.14;105005;1274;59707;-62
2022/05/23 02:31:49;;;;;;;13.10;6.20;;;;;;;4.30;100.00;99815.48;104558;1274;60531;-63
2022/05/23 02:34:37;;;;;;;17.30;6.70;;;;;;;4.29;100.00;99809.73;104707;1274;73015;-63
2022/05/23 02:37:26;;;;;;;12.30;6.60;;;;;;;4.29;100.00;99810.77;104704;1274;65858;-63
2022/05/23 02:40:17;;;;;;;13.90;6.70;;;;;;;4.30;100.00;99805.42;104719;1273;74492;-62
2022/05/23 02:43:05;;;;;;;14.40;6.60;;;;;;;4.31;100.00;99806.08;104858;1274;59658;-64
2022/05/23 02:45:54;;;;;;;15.70;7.00;;;;;;;4.33;100.00;99808.44;104743;1274;59611;-62
2022/05/23 02:48:44;;;;;;;13.20;6.60;;;;;;;4.36;100.00;99811.42;104998;1274;73907;-63
2022/05/23 02:51:34;;;;;;;15.40;7.00;;;;;;;4.40;100.00;99811.19;104826;1273;69012;-64
2022/05/23 02:54:25;;;;;;;14.40;7.80;;;;;;;4.44;100.00;99814.52;104812;1274;73945;-62
2022/05/23 02:57:17;;;;;;;14.60;7.20;;;;;;;4.47;100.00;99812.75;104709;1274;59776;-63
2022/05/23 03:00:09;;;;;;;16.10;7.80;;;;;;;4.51;100.00;99811.30;104831;1274;60680;-62
2022/05/23 03:03:03;;;;;;;14.70;7.50;;;;;;;4.55;100.00;99815.09;104717;1274;72483;-60
2022/05/23 03:06:04;;;;;;;13.70;7.00;;;;;;;4.61;100.00;99817.05;105019;1273;68196;-61
2022/05/23 03:08:53;;;;;;;14.90;7.40;;;;;;;4.64;100.00;99812.33;104082;1274;1003792;-60
2022/05/23 03:11:42;;;;;;;13.30;7.10;;;;;;;4.69;100.00;99811.54;104877;1274;60839;-63
2022/05/23 03:14:32;;;;;;;12.30;7.00;;;;;;;4.72;100.00;99802.90;104734;1274;60902;-60
2022/05/23 03:17:21;;;;;;;14.20;6.60;;;;;;;4.83;100.00;99811.08;104767;1273;73919;-61
2022/05/23 03:20:12;;;;;;;15.60;6.80;;;;;;;4.88;100.00;99811.85;104917;1274;69291;-60
2022/05/23 03:29:14;;;;;;;14.70;7.20;;;;;;;5.09;100.00;99811.84;104909;1274;59910;-60
2022/05/23 03:32:06;;;;;;;12.00;6.40;;;;;;;5.15;100.00;99814.48;104826;1274;72400;-60
2022/05/23 03:34:53;;;;;;;11.90;5.90;;;;;;;5.20;100.00;99815.45;104540;1274;66794;-61
2022/05/23 03:37:43;;;;;;;13.20;7.40;;;;;;;5.22;100.00;99815.80;104761;1274;71521;-64
2022/05/23 03:40:33;;;;;;;14.40;7.70;;;;;;;5.26;100.00;99812.03;104792;1274;60618;-64
2022/05/23 03:43:21;;;;;;;13.10;7.00;;;;;;;5.32;100.00;99809.80;104756;1274;62106;-62
2022/05/23 03:46:13;;;;;;;14.70;6.40;;;;;;;5.36;100.00;99811.83;104922;1273;72155;-63
2022/05/23 03:49:06;;;;;;;13.20;6.90;;;;;;;5.42;100.00;99808.83;104616;1274;69562;-61
2022/05/23 03:51:55;;;;;;;14.70;6.90;;;;;;;5.49;100.00;99807.02;104597;1274;71148;-62
2022/05/23 03:54:43;;;;;;;13.80;6.60;;;;;;;5.57;100.00;99809.51;104767;1273;60825;-64
2022/05/23 03:57:31;;;;;;;12.90;6.50;;;;;;;5.66;100.00;99808.80;104851;1273;59653;-64
2022/05/23 04:00:20;;;;;;;12.00;6.70;;;;;;;5.72;100.00;99807.52;104899;1275;72798;-61
2022/05/23 04:03:10;;;;;;;14.20;6.10;;;;;;;5.81;100.00;99808.19;104425;1275;67292;-62
2022/05/23 04:06:00;;;;;;;12.80;6.40;;;;;;;5.90;100.00;99809.24;104594;1274;73646;-60
2022/05/23 04:08:52;;;;;;;11.40;6.10;;;;;;;6.00;100.00;99814.67;104598;1275;59698;-60
2022/05/23 04:11:41;;;;;;;12.30;6.30;;;;;;;6.09;100.00;99816.58;104626;1274;60318;-61
2022/05/23 04:14:29;;;;;;;12.20;5.40;;;;;;;6.19;100.00;99819.27;105199;1276;74860;-63
2022/05/23 04:17:18;;;;;;;11.50;5.40;;;;;;;6.30;100.00;99819.30;104585;1276;67602;-62
2022/05/23 04:20:10;;;;;;;11.70;6.00;;;;;;;6.41;100.00;99814.02;104600;1275;74208;-61
2022/05/23 04:23:15;;;;;;;11.30;6.10;;;;;;;6.55;100.00;99810.66;104719;1276;61398;-62
2022/05/23 04:26:08;;;;;;;11.20;5.90;;;;;;;6.68;100.00;99808.36;104461;1276;60380;-62
2022/05/23 04:28:56;;;;;;;11.50;5.60;;;;;;;6.84;100.00;99811.04;104416;1276;74681;-63
2022/05/23 04:31:45;;;;;;;11.40;5.90;;;;;;;6.94;100.00;99801.53;104836;1274;69918;-61
2022/05/23 04:37:52;;;;;;;11.20;5.80;;;;;;;7.33;100.00;99790.84;104579;1274;59650;-63
2022/05/23 04:40:48;;;;;;;11.00;5.60;;;;;;;7.60;99.98;99792.14;104846;1275;60523;-62
2022/05/23 04:43:36;;;;;;;15.20;6.00;;;;;;;7.90;99.09;99792.32;104746;1274;74142;-61
2022/05/23 04:46:24;;;;;;;11.50;5.40;;;;;;;8.42;97.76;99792.72;104612;1274;65947;-64
2022/05/23 04:49:50;;;;;;;11.20;5.20;;;;;;;9.27;97.21;99789.61;104551;1276;73010;-65
2022/05/23 04:53:02;;;;;;;13.00;4.90;;;;;;;10.56;93.55;99792.34;104521;1276;59822;-61
2022/05/23 04:55:52;;;;;;;9.00;3.90;;;;;;;11.62;87.10;99790.10;104544;1276;60552;-63
2022/05/23 04:58:40;;;;;;;8.70;3.70;;;;;;;12.57;81.35;99787.80;104439;1276;73136;-64
2022/05/23 05:01:28;;;;;;;7.80;3.30;;;;;;;13.24;76.07;99786.01;104565;1275;69793;-64
2022/05/23 05:04:17;;;;;;;7.30;3.20;;;;;;;13.55;71.59;99783.89;104627;1274;73516;-66
2022/05/23 05:07:05;;;;;;;8.00;3.30;;;;;;;14.03;69.31;99781.61;104581;1274;59751;-66
2022/05/23 05:09:53;;;;;;;8.40;3.20;;;;;;;14.86;66.72;99783.17;104613;1274;59746;-65
2022/05/23 05:12:41;;;;;;;7.00;2.80;;;;;;;15.53;63.27;99777.41;104589;1274;73956;-65
2022/05/23 05:15:30;;;;;;;8.30;2.90;;;;;;;16.48;59.90;99777.23;104574;1274;68356;-66
2022/05/23 05:18:18;;;;;;;8.30;3.00;;;;;;;17.72;56.89;99779.11;104836;1273;73440;-70
2022/05/23 05:21:13;;;;;;;8.00;2.90;;;;;;;18.82;53.22;99783.66;104669;1273;59664;-69
2022/05/23 05:24:20;;;;;;;7.90;3.20;;;;;;;20.14;49.71;99772.69;105104;1273;59732;-68
2022/05/23 05:27:26;;;;;;;7.00;3.00;;;;;;;21.40;45.96;99770.29;104796;1273;73619;-68
2022/05/23 05:30:20;;;;;;;7.40;2.60;;;;;;;22.45;42.13;99766.50;104533;1276;68693;-64
2022/05/23 05:33:12;;;;;;;8.60;2.30;;;;;;;23.18;38.72;99759.92;104655;1273;74442;-66
2022/05/23 05:36:11;;;;;;;7.60;2.70;;;;;;;23.90;36.81;99750.45;104973;1273;59711;-68
2022/05/23 05:39:05;;;;;;;7.30;2.20;;;;;;;24.53;35.43;99747.61;105037;1273;59660;-70
2022/05/23 05:42:09;;;;;;;6.00;2.10;;;;;;;25.15;33.81;99743.95;104714;1273;73765;-68
2022/05/23 05:45:08;;;;;;;6.70;2.00;;;;;;;25.57;32.72;99739.04;104694;1273;69555;-68
2022/05/23 05:47:57;;;;;;;7.50;2.10;;;;;;;25.96;32.10;99739.66;104723;1274;73581;-69
2022/05/23 05:51:04;;;;;;;7.50;2.30;;;;;;;26.58;31.14;99735.88;104696;1273;59774;-68
2022/05/23 05:53:53;;;;;;;6.50;1.70;;;;;;;26.98;30.05;99736.06;104801;1273;59768;-71
2022/05/23 05:56:53;;;;;;;6.00;1.80;;;;;;;27.22;28.97;99735.15;104799;1273;73864;-69
2022/05/23 05:59:42;;;;;;;6.40;1.60;;;;;;;27.49;28.46;99733.56;105088;1274;69604;-69
2022/05/23 06:02:32;;;;;;;6.00;1.50;;;;;;;27.79;27.68;99727.37;104896;1274;74243;-71
2022/05/23 06:05:20;;;;;;;6.00;1.50;;;;;;;28.04;26.87;99723.80;104943;1275;59672;-73
2022/05/23 06:11:23;;;;;;;6.30;1.60;;;;;;;28.66;26.00;99727.77;104897;1275;73678;-70
2022/05/23 06:14:29;;;;;;;6.30;1.50;;;;;;;28.94;25.36;99731.04;105013;1276;68647;-67
2022/05/23 06:17:22;;;;;;;6.00;1.20;;;;;;;29.38;24.74;99730.74;104934;1275;73443;-70
2022/05/23 06:20:15;;;;;;;4.90;1.30;;;;;;;29.66;23.98;99735.36;104758;1274;59771;-65
2022/05/23 06:23:06;;;;;;;5.30;1.30;;;;;;;30.01;23.67;99738.50;105245;1276;61206;-66
2022/05/23 06:25:57;;;;;;;5.70;1.40;;;;;;;30.27;22.34;99734.19;104783;1276;72703;-73
2022/05/23 06:29:08;;;;;;;5.80;1.10;;;;;;;30.25;22.01;99734.28;104956;1274;68316;-75
2022/05/23 06:31:56;;;;;;;6.80;1.40;;;;;;;30.34;21.98;99730.21;104747;1274;73522;-70
2022/05/23 06:34:45;;;;;;;5.70;1.40;;;;;;;30.46;22.15;99734.47;104622;1277;59877;-74
2022/05/23 06:37:34;;;;;;;5.80;1.40;;;;;;;30.70;21.42;99737.11;104480;1276;59587;-71
2022/05/23 06:40:51;;;;;;;6.60;1.50;;;;;;;30.78;21.08;99741.35;104915;1274;72189;-68
2022/05/23 06:43:41;;;;;;;7.10;1.30;;;;;;;30.77;20.96;99742.23;104696;1275;67653;-69
2022/05/23 06:46:41;;;;;;;5.90;1.30;;;;;;;30.77;21.15;99738.92;104884;1274;73322;-68
2022/05/23 06:49:48;;;;;;;5.80;1.30;;;;;;;31.21;20.44;99747.39;104946;1275;59694;-69
2022/05/23 06:52:44;;;;;;;6.90;2.00;;;;;;;31.77;19.39;99740.98;104852;1275;59663;-69
2022/05/23 06:55:51;;;;;;;5.60;1.50;;;;;;;32.11;19.17;99739.15;105010;1274;73375;-69
2022/05/23 06:58:40;;;;;;;5.00;1.10;;;;;;;32.64;18.75;99738.88;104781;1274;68218;-69
2022/05/23 07:01:40;;;;;;;5.30;1.00;;;;;;;32.94;18.14;99736.11;104653;1275;73156;-70
2022/05/23 07:14:26;;;;;;;5.60;1.20;;;;;;;33.52;16.89;99745.15;104794;1275;68287;-68
2022/05/23 07:17:16;;;;;;;8.90;1.60;;;;;;;33.79;16.90;99743.20;104730;1276;72541;-67
2022/05/23 07:20:45;;;;;;;6.30;1.20;;;;;;;33.89;16.63;99741.36;104976;1275;59789;-68
2022/05/23 07:23:38;;;;;;;6.10;1.40;;;;;;;33.62;16.26;99735.86;104902;1274;60376;-67
2022/05/23 07:26:37;;;;;;;6.30;1.20;;;;;;;33.14;16.64;99738.41;105068;1275;73229;-68
2022/05/23 07:29:26;;;;;;;6.00;1.30;;;;;;;32.98;17.26;99735.55;104814;1274;68570;-72
2022/05/23 07:32:15;;;;;;;5.70;1.30;;;;;;;32.92;17.16;99733.42;104639;1274;73790;-69
2022/05/23 07:35:05;;;;;;;8.20;1.60;;;;;;;32.89;16.98;99729.88;104662;1274;59776;-69
2022/05/23 07:37:54;;;;;;;6.70;1.50;;;;;;;32.84;17.20;99729.83;104781;1274;60534;-69
2022/05/23 07:40:42;;;;;;;6.90;1.30;;;;;;;33.13;16.83;99731.63;104678;1274;74805;-72
2022/05/23 07:43:41;;;;;;;6.90;1.20;;;;;;;33.37;16.86;99728.38;104942;1276;67289;-67
2022/05/23 07:46:29;;;;;;;6.40;1.40;;;;;;;33.58;17.08;99726.10;104695;1275;72789;-76
2022/05/23 07:49:17;;;;;;;6.50;1.30;;;;;;;33.79;16.18;99725.00;104392;1279;59761;-75
2022/05/23 07:52:34;;;;;;;6.20;1.30;;;;;;;33.65;16.50;99726.63;104580;1279;60617;-76
2022/05/23 08:01:37;;;;;;;6.00;1.10;;;;;;;32.74;16.01;99708.35;105083;1277;71561;-76
2022/05/23 08:04:25;;;;;;;6.80;1.20;;;;;;;32.68;16.21;99711.25;105245;1277;60347;-73
2022/05/23 08:07:14;;;;;;;6.00;1.40;;;;;;;32.21;17.66;99718.11;104857;1276;62055;-79
2022/05/23 08:10:05;;;;;;;7.90;1.70;;;;;;;32.20;18.28;99720.95;105075;1277;73210;-77
2022/05/23 08:12:58;;;;;;;9.90;1.90;;;;;;;32.03;18.49;99721.22;104413;1277;69719;-75
2022/05/23 08:15:46;;;;;;;7.20;1.50;;;;;;;31.89;18.80;99720.28;104606;1277;72164;-78
2022/05/23 08:18:35;;;;;;;10.80;1.60;;;;;;;31.43;19.07;99716.85;105169;1277;59808;-72
2022/05/23 08:21:26;;;;;;;11.30;2.20;;;;;;;31.17;19.07;99711.81;104985;1276;60515;-70
2022/05/23 08:24:15;;;;;;;9.60;1.90;;;;;;;31.03;19.11;99712.48;104980;1274;74718;-68
2022/05/23 08:27:04;;;;;;;6.30;1.50;;;;;;;31.10;19.36;99712.48;104765;1275;68999;-71
2022/05/23 08:29:57;;;;;;;6.40;1.80;;;;;;;31.03;19.45;99713.46;105038;1274;74417;-73
2022/05/23 08:32:50;;;;;;;5.70;1.60;;;;;;;30.77;19.41;99716.30;105060;1274;59771;-73
2022/05/23 08:35:39;;;;;;;5.90;1.50;;;;;;;30.93;19.65;99714.30;105111;1276;60893;-72
2022/05/23 08:38:30;;;;;;;9.20;1.70;;;;;;;30.84;19.88;99715.81;105153;1276;71897;-72
2022/05/23 08:41:42;;;;;;;5.80;1.60;;;;;;;31.07;19.35;99710.68;105316;1276;68062;-69
2022/05/23 08:45:27;;;;;;;7.50;1.90;;;;;;;31.06;19.91;99711.30;105594;1274;73030;-71
2022/05/23 08:48:57;;;;;;;6.20;1.80;;;;;;;31.32;19.88;99710.74;105101;1274;59759;-71
2022/05/23 08:52:42;;;;;;;6.30;1.70;;;;;;;31.56;19.51;99704.52;104658;1274;59727;-72
2022/05/23 08:55:52;;;;;;;7.40;1.80;;;;;;;31.56;19.04;99703.95;104674;1281;72502;-77
2022/05/23 08:59:20;;;;;;;7.40;1.80;;;;;;;31.40;19.57;99701.89;104867;1281;66892;-72
2022/05/23 09:02:27;;;;;;;6.60;1.50;;;;;;;31.34;19.75;99695.63;104557;1280;73414;-73
2022/05/23 09:05:20;;;;;;;5.90;1.50;;;;;;;31.04;19.89;99690.48;104661;1280;59679;-71
2022/05/23 09:08:36;;;;;;;5.20;1.40;;;;;;;30.57;20.20;99691.80;104897;1281;59551;-73
2022/05/23 09:11:36;;;;;;;8.70;2.00;;;;;;;30.39;20.83;99687.33;105044;1281;530901;-79
2022/05/23 09:14:24;;;;;;;7.00;1.60;;;;;;;30.25;20.37;99684.45;104525;1279;68456;-75
2022/05/23 09:17:28;;;;;;;7.60;1.60;;;;;;;29.94;20.88;99680.83;104494;1279;71591;-71
2022/05/23 09:20:33;;;;;;;7.20;1.60;;;;;;;29.85;21.28;99680.39;104577;1280;59695;-72
2022/05/23 09:23:30;;;;;;;7.00;1.60;;;;;;;29.71;21.07;99676.75;104493;1279;60262;-71
2022/05/23 09:26:29;;;;;;;7.50;1.60;;;;;;;29.41;21.54;99676.26;104335;1281;72402;-71
2022/05/23 09:29:17;;;;;;;5.50;1.30;;;;;;;29.33;21.79;99678.23;104285;1281;68682;-70
2022/05/23 09:32:17;;;;;;;6.50;1.60;;;;;;;29.31;22.41;99679.58;104697;1278;71968;-70
2022/05/23 09:35:46;;;;;;;5.70;1.50;;;;;;;29.28;22.10;99679.09;104680;1276;59657;-75
2022/05/23 09:38:58;;;;;;;5.30;1.50;;;;;;;29.26;22.30;99684.15;104773;1276;60630;-72
2022/05/23 09:49:14;;;;;;;7.10;1.40;;;;;;;29.70;21.19;99674.44;104271;1284;74702;-68
2022/05/23 09:52:31;;;;;;;7.80;1.60;;;;;;;29.38;21.69;99674.79;104279;1282;59743;-73
2022/05/23 09:55:30;;;;;;;5.80;1.60;;;;;;;29.04;21.41;99670.02;104090;1282;61238;-75
2022/05/23 09:58:34;;;;;;;5.20;1.50;;;;;;;28.98;21.83;99669.65;104566;1284;74972;-72
2022/05/23 10:01:29;;;;;;;6.80;1.40;;;;;;;29.01;21.63;99665.08;104045;1283;68498;-67
2022/05/23 10:04:30;;;;;;;6.00;1.40;;;;;;;29.07;21.99;99666.66;104283;1283;72999;-68
2022/05/23 10:07:35;;;;;;;6.90;1.90;;;;;;;29.37;21.31;99662.79;103990;1282;59791;-74
2022/05/23 10:10:36;;;;;;;6.10;1.60;;;;;;;29.24;20.64;99664.88;103948;1284;59642;-74
2022/05/23 10:13:47;;;;;;;7.30;1.40;;;;;;;29.11;21.30;99659.36;104197;1283;72454;-68
2022/05/23 10:16:54;;;;;;;4.80;1.20;;;;;;;29.02;21.21;99658.20;103218;1290;66923;-70
2022/05/23 10:19:42;;;;;;;5.10;1.20;;;;;;;28.84;21.16;99656.34;103835;1290;72619;-70
2022/05/23 10:22:31;;;;;;;5.60;1.60;;;;;;;28.74;21.24;99654.75;103627;1290;59755;-73
2022/05/23 10:25:20;;;;;;;6.10;1.40;;;;;;;28.62;21.86;99656.70;104108;1284;61679;-69
2022/05/23 10:28:16;;;;;;;5.30;1.40;;;;;;;28.51;21.77;99657.09;103868;1284;74862;-74
2022/05/23 10:31:40;;;;;;;6.20;1.40;;;;;;;28.62;22.01;99658.44;104070;1284;68647;-70
2022/05/23 10:34:50;;;;;;;4.70;1.20;;;;;;;28.73;22.01;99653.21;103902;1284;73839;-68
2022/05/23 10:37:40;;;;;;;5.70;1.50;;;;;;;28.55;22.00;99654.86;103901;1284;59645;-68
2022/05/23 10:43:57;;;;;;;5.60;1.40;;;;;;;28.46;21.42;99661.83;104188;1284;74815;-67
2022/05/23 10:46:53;;;;;;;5.00;1.40;;;;;;;28.55;21.76;99656.61;104055;1284;68754;-68
2022/05/23 10:50:54;;;;;;;7.30;1.60;;;;;;;28.83;21.33;99655.13;104075;1284;71911;-74
2022/05/23 10:54:00;;;;;;;5.70;1.40;;;;;;;28.92;20.80;99648.25;104046;1275;59679;-77
2022/05/23 10:57:20;;;;;;;8.10;1.60;;;;;;;28.81;20.96;99649.50;104822;1274;60224;-74
2022/05/23 11:00:19;;;;;;;6.50;1.50;;;;;;;28.77;21.72;99647.33;105037;1275;73628;-67
2022/05/23 11:04:08;;;;;;;5.90;1.50;;;;;;;28.66;21.68;99643.73;104694;1274;67569;-70
2022/05/23 11:07:00;;;;;;;6.30;1.30;;;;;;;28.33;21.30;99641.52;104270;1281;74444;-70
2022/05/23 11:10:13;;;;;;;6.10;1.20;;;;;;;28.11;22.07;99639.52;104156;1281;59851;-66
2022/05/23 11:13:49;;;;;;;6.20;1.40;;;;;;;27.36;22.53;99639.05;104356;1281;60293;-66
2022/05/23 11:17:01;;;;;;;6.30;1.50;;;;;;;26.38;23.65;99642.13;104315;1281;73235;-65
2022/05/23 11:20:05;;;;;;;5.70;1.40;;;;;;;25.42;25.07;99641.07;104397;1281;68479;-67
2022/05/23 11:23:20;;;;;;;5.50;1.60;;;;;;;24.88;26.30;99639.80;104537;1281;74539;-67
2022/05/23 11:26:20;;;;;;;6.50;1.60;;;;;;;24.42;27.16;99631.86;103637;1287;59694;-70
2022/05/23 11:35:48;;;;;;;9.70;2.90;;;;;;;22.65;30.17;99638.41;103613;1287;70053;-63
2022/05/23 11:38:47;;;;;;;7.90;2.00;;;;;;;21.61;32.12;99642.69;103768;1287;72633;-68
2022/05/23 11:41:41;;;;;;;6.30;1.90;;;;;;;20.84;33.71;99641.70;103967;1287;59759;-71
2022/05/23 11:44:45;;;;;;;8.30;1.70;;;;;;;20.31;34.95;99639.60;104252;1284;61522;-72
2022/05/23 11:47:50;;;;;;;8.20;2.10;;;;;;;19.85;36.96;99640.27;104179;1282;74852;-73
2022/05/23 11:50:50;;;;;;;6.10;2.10;;;;;;;19.51;37.71;99639.18;104456;1282;68349;-68
2022/05/23 11:54:00;;;;;;;7.90;2.40;;;;;;;19.04;37.49;99635.00;103969;1284;72531;-68
2022/05/23 11:57:00;;;;;;;8.20;2.10;;;;;;;18.65;38.48;99637.94;104343;1282;59738;-71
2022/05/23 11:59:50;;;;;;;7.40;2.00;;;;;;;18.44;39.29;99641.56;104702;1282;59781;-67
2022/05/23 12:02:39;;;;;;;7.70;1.70;;;;;;;18.25;39.33;99638.63;103910;1280;73769;-63
2022/05/23 12:05:32;;;;;;;8.00;1.90;;;;;;;18.00;39.56;99640.19;104799;1274;70090;-66
2022/05/23 12:08:31;;;;;;;5.80;1.90;;;;;;;17.53;39.88;99644.61;104860;1276;73931;-64
2022/05/23 12:11:21;;;;;;;6.70;2.10;;;;;;;17.19;41.03;99643.52;104921;1274;59774;-66
2022/05/23 12:14:29;;;;;;;7.00;2.00;;;;;;;17.13;41.07;99647.27;105018;1274;59579;-65
2022/05/23 12:17:33;;;;;;;8.00;1.90;;;;;;;16.82;41.29;99652.62;104845;1273;73933;-65
2022/05/23 12:20:25;;;;;;;6.60;2.10;;;;;;;16.54;42.21;99648.00;104679;1273;68541;-68
2022/05/23 12:23:37;;;;;;;6.60;2.00;;;;;;;16.57;42.98;99645.21;105061;1274;72349;-67
2022/05/23 12:26:26;;;;;;;6.90;2.10;;;;;;;16.57;43.14;99638.02;104652;1274;59663;-67
2022/05/23 12:29:34;;;;;;;5.60;1.70;;;;;;;16.47;42.48;99634.43;104696;1274;59772;-66
2022/05/23 12:32:26;;;;;;;9.50;2.20;;;;;;;16.37;42.57;99636.08;104573;1274;72638;-68
2022/05/23 12:35:17;;;;;;;8.50;2.10;;;;;;;16.33;42.64;99627.58;104670;1274;67830;-67
2022/05/23 12:38:26;;;;;;;7.90;1.90;;;;;;;16.39;42.79;99620.94;104638;1274;72634;-66
2022/05/23 12:41:54;;;;;;;5.90;2.10;;;;;;;16.42;42.00;99615.10;105308;1273;59836;-73
2022/05/23 12:45:01;;;;;;;8.70;2.20;;;;;;;16.43;42.43;99611.10;104858;1276;59735;-65
2022/05/23 12:48:17;;;;;;;6.20;2.00;;;;;;;16.57;42.25;99613.52;104703;1274;74021;-67
2022/05/23 12:51:42;;;;;;;7.70;2.10;;;;;;;16.73;42.55;99613.36;104697;1275;67839;-68
2022/05/23 12:54:56;;;;;;;8.50;1.90;;;;;;;16.90;42.24;99606.42;104806;1274;72663;-70
2022/05/23 12:58:20;;;;;;;8.20;2.00;;;;;;;16.90;41.24;99600.37;104419;1279;60012;-71
2022/05/23 13:01:17;;;;;;;9.10;1.90;;;;;;;16.87;41.47;99602.63;104424;1282;61236;-68
2022/05/23 13:04:52;;;;;;;6.50;1.70;;;;;;;16.79;41.10;99598.30;104125;1281;74362;-68
2022/05/23 13:08:03;;;;;;;7.60;1.70;;;;;;;16.76;41.17;99594.55;103659;1288;69144;-67
2022/05/23 13:11:11;;;;;;;5.40;1.70;;;;;;;16.78;41.11;99594.70;103449;1287;72421;-69
2022/05/23 13:14:01;;;;;;;6.40;1.80;;;;;;;16.79;40.87;99597.80;103695;1287;60433;-71
2022/05/23 13:16:56;;;;;;;5.70;1.80;;;;;;;16.86;41.10;99586.09;103710;1287;59896;-66
2022/05/23 13:22:57;;;;;;;6.40;1.70;;;;;;;16.83;41.01;99585.94;103499;1287;67066;-65
2022/05/23 13:25:48;;;;;;;8.40;1.90;;;;;;;16.63;41.40;99584.29;103910;1287;74117;-66
2022/05/23 13:28:47;;;;;;;6.20;1.70;;;;;;;16.64;41.47;99584.73;104164;1285;60238;-67
2022/05/23 13:31:35;;;;;;;7.50;1.70;;;;;;;16.59;41.47;99585.84;103973;1287;62082;-69
2022/05/23 13:34:38;;;;;;;8.10;1.80;;;;;;;16.41;41.17;99586.20;103748;1282;74756;-70
2022/05/23 13:37:37;;;;;;;9.90;1.90;;;;;;;16.31;41.21;99585.90;104142;1282;69162;-70
2022/05/23 13:40:29;;;;;;;6.20;1.70;;;;;;;16.28;42.02;99583.89;103467;1282;1003108;-71
2022/05/23 13:43:31;;;;;;;6.00;1.70;;;;;;;16.32;41.84;99581.23;105031;1273;59657;-67
2022/05/23 13:46:28;;;;;;;5.40;1.60;;;;;;;16.31;41.11;99578.11;104640;1279;60453;-65
2022/05/23 13:49:27;;;;;;;5.50;1.80;;;;;;;16.35;41.41;99572.77;104458;1279;73270;-70
2022/05/23 13:52:23;;;;;;;7.30;1.90;;;;;;;16.37;41.48;99572.14;104526;1279;69185;-69
2022/05/23 13:55:41;;;;;;;6.20;1.80;;;;;;;16.34;41.73;99573.35;104634;1279;73137;-71
2022/05/23 13:58:34;;;;;;;8.00;2.00;;;;;;;16.34;41.05;99569.79;104779;1279;59794;-69
2022/05/23 14:01:36;;;;;;;7.70;2.10;;;;;;;16.33;41.88;99572.54;104849;1281;59655;-65
2022/05/23 14:04:31;;;;;;;6.20;1.60;;;;;;;16.28;41.66;99575.05;104487;1279;74868;-67
2022/05/23 14:07:30;;;;;;;7.00;1.60;;;;;;;16.18;41.67;99576.40;104313;1279;68715;-70
2022/05/23 14:10:27;;;;;;;5.60;1.90;;;;;;;16.09;42.00;99573.98;104629;1277;73503;-68
2022/05/23 14:13:19;;;;;;;9.30;2.00;;;;;;;16.05;42.08;99570.42;104365;1279;59439;-70
2022/05/23 14:16:15;;;;;;;6.20;1.60;;;;;;;16.10;42.30;99569.75;104648;1279;59899;-70
2022/05/23 14:19:23;;;;;;;6.60;1.80;;;;;;;16.14;42.82;99568.89;104849;1274;74745;-70
2022/05/23 14:22:30;;;;;;;8.60;1.60;;;;;;;16.17;43.19;99569.65;104977;1274;68187;-69
2022/05/23 14:25:23;;;;;;;6.20;1.80;;;;;;;16.21;43.52;99569.59;104930;1274;73178;-71
2022/05/23 14:28:27;;;;;;;8.20;2.20;;;;;;;16.17;43.09;99568.61;104793;1275;60269;-71
2022/05/23 14:31:46;;;;;;;6.90;2.00;;;;;;;16.11;43.44;99561.07;104691;1274;60499;-72
2022/05/23 14:34:34;;;;;;;5.50;1.50;;;;;;;16.09;43.06;99557.84;104988;1274;74356;-71
2022/05/23 14:37:22;;;;;;;7.40;2.00;;;;;;;16.03;43.27;99558.29;104716;1274;68629;-70
2022/05/23 14:40:15;;;;;;;8.80;2.30;;;;;;;16.01;44.24;99551.77;104436;1276;73929;-71